Estació municipal de Les Masies de Roda (Osona, Ter)

Consulta les dades en temps real de l'estació municipal de Les Masies de Roda





Hora UTC 10:00
Temperatura 18.0 ºC
Sòl 15 cm 24.3 ºC
Humitat 69.0 %
Pressió 1011.7 hPa
Pluja 0.1 mm
Velocitat vent 10.0 km/h
Direcció vent WSW
Radiació solar 838.0 W/m²

Dades diàries 2026-05-10



Hora UTC (hivern +1h; estiu +2h)
Temperatura (ºC) Humitat (%) Pressió (hPa) Velocitat vent (km/h) Precipitació (mm) Radiació solar (W/m²)
Hora UTC Aire Sòl 15 cm Humitat Pressió Vel. Dir. Vel. Max Dir. Intent. màx 5 min. Rad. Sol.
00:05 11.8 11.1 98.4 1012.5 3.4 SW 3.4 SSW 0.0 0.1
00:10 11.7 11.0 98.3 1012.2 0.8 WSW 3.9 WSW 0.0 0.1
00:15 11.6 10.6 98.3 1012.3 2.8 SSW 5.0 SSW 0.0 0.1
00:20 11.5 10.2 98.3 1012.0 3.1 SSW 5.0 SSW 0.0 0.1
00:25 11.4 10.0 98.3 1012.1 2.1 SSW 3.9 SSW 0.0 0.1
00:30 11.3 9.9 98.3 1012.0 2.5 W 3.2 W 0.0 0.1
00:35 11.2 10.0 98.4 1011.9 2.5 WNW 4.2 WNW 0.0 0.1
00:40 11.2 9.7 98.4 1011.7 2.1 W 3.2 W 0.0 0.1
00:45 11.0 9.2 98.3 1011.7 1.9 W 2.8 W 0.0 0.1
00:50 10.7 8.9 98.2 1011.7 3.2 WNW 4.6 WNW 0.0 0.1
00:55 10.6 8.5 98.4 1011.7 1.1 WSW 3.2 WSW 0.0 0.1
01:00 10.6 8.2 98.4 1011.7 3.0 SW 4.6 WSW 0.0 0.1
01:05 10.5 8.0 98.4 1011.8 0.8 SW 2.5 WSW 0.0 0.1
01:10 10.3 8.0 98.3 1011.8 0.9 WNW 2.1 WNW 0.0 0.1
01:15 10.2 7.9 98.5 1011.8 1.5 NNW 2.5 NNW 0.0 0.1
01:20 10.0 7.7 98.4 1011.7 1.9 NNE 2.8 NNE 0.0 0.1
01:25 9.9 7.5 98.5 1011.7 0.3 NNE 2.5 NNE 0.0 0.1
01:30 9.2 7.3 98.1 1011.6 0.0 NNE 0.0 NNE 0.0 0.1
01:35 8.9 7.2 98.2 1011.5 0.0 NNE 0.0 NNE 0.0 0.1
01:40 8.9 7.1 98.5 1011.6 2.0 SE 3.5 SE 0.0 0.1
01:45 9.1 7.0 98.6 1011.7 0.0 NNE 0.0 SE 0.0 0.1
01:50 9.1 6.9 98.6 1011.7 0.0 NNE 0.0 SW 0.0 0.1
01:55 9.0 6.9 98.6 1011.6 0.9 SSW 2.8 SSW 0.0 0.1
02:00 8.9 6.9 98.6 1011.6 0.0 NNE 0.0 SSW 0.0 0.1
02:05 8.9 7.0 98.7 1011.7 0.0 NNE 0.0 SW 0.0 0.1
02:10 9.1 7.0 98.8 1011.6 0.0 NNE 0.0 W 0.0 0.1
02:15 9.3 7.0 98.9 1011.6 0.0 NNE 0.0 W 0.0 0.1
02:20 9.2 6.9 98.8 1011.6 0.0 NNE 0.0 W 0.0 0.1
02:25 9.1 6.9 98.8 1011.8 0.0 NNE 0.0 NE 0.0 0.1
02:30 9.1 7.0 98.8 1011.7 2.5 NNE 4.2 NNE 0.0 0.1
02:35 8.7 6.9 98.6 1011.8 0.2 N 1.8 N 0.0 0.1
02:40 8.2 6.5 98.5 1011.7 0.0 NNE 0.0 N 0.0 0.1
02:45 8.4 6.5 98.9 1011.9 0.0 NNE 0.0 N 0.0 0.1
02:50 8.6 6.7 98.9 1011.7 0.0 NNE 0.0 NNE 0.0 0.1
02:55 8.5 6.5 98.8 1011.8 0.0 NNE 0.0 NNE 0.0 0.1
03:00 8.2 6.2 98.7 1011.7 0.0 NNE 0.0 ENE 0.0 0.1
03:05 8.3 6.1 98.9 1011.7 0.0 NNE 0.0 ENE 0.0 0.1
03:10 8.2 6.3 98.8 1011.7 0.0 NNE 0.0 NE 0.0 0.1
03:15 8.0 6.7 98.8 1011.5 0.5 WNW 2.8 NW 0.0 0.1
03:20 7.9 7.2 98.9 1011.6 0.0 NNE 0.0 NW 0.0 0.1
03:25 8.2 7.6 99.0 1011.4 0.0 NNE 0.0 NW 0.0 0.1
03:30 8.5 7.8 99.1 1011.4 0.0 NNE 0.0 ENE 0.0 0.1
03:35 8.5 7.9 99.1 1011.3 2.1 SW 3.5 SW 0.0 0.1
03:40 8.7 8.0 99.1 1011.4 0.8 W 2.5 WSW 0.0 0.1
03:45 8.8 7.9 99.1 1011.2 0.0 NNE 0.0 NNE 0.0 0.1
03:50 8.8 7.8 99.1 1011.2 0.0 NNE 0.0 NNE 0.0 0.1
03:55 8.9 7.9 99.1 1011.3 0.0 NNE 0.0 NNE 0.0 0.1
04:00 8.9 8.1 99.1 1011.2 0.0 NNE 0.0 NW 0.0 0.1
04:05 9.0 8.2 99.1 1011.2 0.0 NNE 0.0 NW 0.0 0.1
04:10 9.1 8.0 99.2 1011.2 0.9 NNE 3.2 NNE 0.0 0.1
04:15 9.1 8.0 99.1 1011.3 2.0 ENE 3.5 ENE 0.0 0.1
04:20 9.2 8.0 99.1 1011.2 0.0 NNE 0.0 NNE 0.0 0.2
04:25 9.2 8.0 99.1 1011.3 0.0 NNE 0.0 NE 0.0 0.4
04:30 9.0 7.9 99.0 1011.2 0.2 NNE 2.1 NNE 0.0 0.9
04:35 8.9 8.0 99.1 1011.4 0.0 NNE 0.0 NNE 0.0 1.7
04:40 8.7 7.9 99.0 1011.3 0.9 WNW 3.2 WNW 0.0 2.8
04:45 8.6 7.9 99.0 1011.5 0.0 NNE 0.0 WNW 0.0 4.7
04:50 8.6 7.8 99.1 1011.3 0.0 NNE 0.0 W 0.0 6.7
04:55 8.8 7.8 99.2 1011.5 0.3 NE 4.6 NE 0.0 10.9
05:00 8.7 8.0 99.1 1011.3 3.1 NE 4.6 NNE 0.0 24.9
05:05 8.7 8.3 99.1 1011.5 2.0 NE 3.2 NNE 0.0 22.9
05:10 8.7 8.4 99.1 1011.3 3.0 ENE 5.0 ENE 0.0 26.0
05:15 8.8 8.5 99.2 1011.5 3.4 E 6.4 ENE 0.0 29.5
05:20 8.9 8.8 99.2 1011.3 2.5 ENE 6.0 ENE 0.0 46.7
05:25 9.0 9.2 99.2 1011.4 2.6 ENE 5.3 ENE 0.0 64.3
05:30 9.3 9.5 99.3 1011.2 3.3 ENE 5.0 ENE 0.0 83.5
05:35 9.6 9.9 99.3 1011.3 2.0 NE 5.7 NNE 0.0 81.2
05:40 9.9 10.2 99.3 1011.3 0.7 N 3.2 N 0.0 86.2
05:45 10.2 10.6 99.3 1011.4 1.4 N 3.5 N 0.0 98.8
05:50 10.6 10.9 99.3 1011.4 0.3 E 1.8 E 0.0 146.0
05:55 11.1 11.3 99.3 1011.4 0.0 NNE 0.0 E 0.0 133.8
06:00 10.9 11.5 99.1 1011.4 0.0 NNE 0.0 S 0.0 122.0
06:05 11.0 11.8 99.2 1011.4 1.5 WSW 3.2 W 0.0 161.8
06:10 11.4 12.3 99.2 1011.4 1.0 WSW 2.8 WSW 0.0 121.7
06:15 11.2 12.2 99.0 1011.4 0.0 SW 1.4 SW 0.0 117.8
06:20 11.3 12.2 99.1 1011.4 1.6 SSW 3.2 SSW 0.0 138.3
06:25 11.5 12.4 99.1 1011.5 0.8 SW 2.8 SSW 0.0 155.7
06:30 11.7 12.6 99.0 1011.5 0.7 WSW 2.8 W 0.0 167.8
06:35 11.8 12.8 99.0 1011.5 0.4 WSW 2.5 SSW 0.1 214.6
06:40 12.1 13.3 99.0 1011.4 1.0 WNW 3.5 NW 0.0 272.7
06:45 12.2 13.9 99.0 1011.6 2.3 WNW 3.9 W 0.0 226.4
06:50 12.3 14.3 98.9 1011.5 0.9 W 3.5 W 0.0 223.5
06:55 12.2 14.6 98.7 1011.6 1.6 N 5.0 N 0.0 210.2
07:00 11.7 14.5 98.4 1011.6 0.9 WSW 3.5 SW 0.0 190.9
07:05 11.7 14.5 98.2 1011.7 0.2 ESE 2.1 NE 0.0 202.5
07:10 12.0 14.8 98.4 1011.6 3.6 WSW 5.3 WSW 0.0 279.2
07:15 12.4 15.3 98.1 1011.8 3.0 NW 5.7 N 0.0 237.9
07:20 12.1 15.3 96.9 1011.7 4.9 NNW 8.5 N 0.0 304.6
07:25 12.1 15.2 95.0 1011.9 4.0 NW 7.4 NNW 0.0 310.2
07:30 12.4 15.5 94.0 1011.8 2.0 NNW 5.3 WNW 0.0 324.5
07:35 12.8 15.9 91.8 1011.9 3.2 N 7.1 NNE 0.0 275.7
07:40 12.9 15.7 90.4 1011.7 3.8 NW 8.5 WNW 0.0 296.2
07:45 13.2 15.8 86.1 1011.8 3.4 NW 8.1 WNW 0.0 342.2
07:50 13.4 15.9 84.8 1011.8 4.8 NW 9.5 WNW 0.0 343.1
07:55 13.7 16.6 83.4 1011.8 3.7 NNW 8.1 NNW 0.0 524.7
08:00 14.0 17.2 82.7 1011.9 4.4 NW 8.5 NNW 0.0 356.0
08:05 14.5 18.2 81.3 1011.9 2.5 NW 6.7 NW 0.0 635.6
08:10 15.0 19.7 77.4 1011.9 1.0 WNW 8.8 WNW 0.0 612.2
08:15 14.6 18.8 80.5 1011.9 7.9 NW 13.8 NW 0.0 191.8
08:20 13.9 17.5 81.6 1011.8 3.9 NNW 7.4 NNE 0.0 306.5
08:25 13.9 17.2 79.1 1011.8 2.5 NNE 6.4 N 0.0 366.3
08:30 14.4 17.4 79.3 1011.8 1.5 E 3.9 NE 0.0 427.8
08:35 14.8 18.5 79.2 1011.8 3.5 NE 6.7 ENE 0.0 772.5
08:40 15.0 19.4 78.6 1011.8 3.2 NW 8.5 NW 0.0 367.1
08:45 15.1 19.4 81.1 1011.9 1.8 W 5.0 WSW 0.0 724.3
08:50 15.6 20.6 75.7 1011.8 5.0 N 8.1 NE 0.0 531.4
08:55 15.3 20.6 75.9 1011.8 1.6 NE 5.7 NNE 0.0 590.9
09:00 16.0 21.4 74.6 1011.7 4.3 ENE 7.8 NNE 0.0 840.0
09:05 16.1 22.2 75.4 1011.8 4.7 N 8.1 NNE 0.0 501.8
09:10 15.6 20.9 77.0 1011.7 3.7 NW 8.8 WNW 0.0 248.1
09:15 15.4 20.3 77.7 1011.9 4.9 NW 9.2 NW 0.0 707.1
09:20 16.3 21.4 78.6 1011.7 5.8 WSW 14.1 WSW 0.0 521.3
09:25 16.4 21.6 76.7 1011.8 6.4 WNW 11.7 W 0.0 676.2
09:30 16.8 22.5 72.7 1011.7 1.9 ESE 5.7 SE 0.0 809.0
09:35 17.3 23.3 73.3 1011.8 7.2 S 12.7 SSE 0.0 836.0
09:40 17.4 24.0 71.9 1011.7 3.8 NW 9.9 SSE 0.0 875.0
09:45 17.5 24.0 71.9 1011.7 7.4 SSW 13.4 S 0.0 832.0
09:50 18.4 24.5 71.8 1011.7 9.9 WSW 15.9 WNW 0.0 813.0
09:55 18.3 24.5 70.4 1011.7 9.1 W 15.9 WSW 0.0 816.0
10:00 18.0 24.3 69.0 1011.7 10.0 WSW 21.2 W 0.0 838.0
Màxima 18.4 24.5 99.3 1012.5 10.0 WSW 21.2 W 0.1 875.0
Mínima 7.9 6.1 69.0 1011.2
Total 0.1